sensor_id;sensor_type;location;lat;lon;timestamp;temperature;humidity
18805;DHT22;9530;48.930;9.526;2022-09-21T00:01:43;6.40;99.90
18805;DHT22;9530;48.930;9.526;2022-09-21T00:04:09;6.40;99.90
18805;DHT22;9530;48.930;9.526;2022-09-21T00:06:37;6.40;99.90
18805;DHT22;9530;48.930;9.526;2022-09-21T00:09:04;6.10;99.90
18805;DHT22;9530;48.930;9.526;2022-09-21T00:11:33;6.00;99.90
18805;DHT22;9530;48.930;9.526;2022-09-21T00:14:01;6.00;99.90
18805;DHT22;9530;48.930;9.526;2022-09-21T00:16:29;6.00;99.90
18805;DHT22;9530;48.930;9.526;2022-09-21T00:18:56;6.10;99.90
18805;DHT22;9530;48.930;9.526;2022-09-21T00:21:23;6.00;99.90
18805;DHT22;9530;48.930;9.526;2022-09-21T00:23:51;5.80;99.90
18805;DHT22;9530;48.930;9.526;2022-09-21T00:26:20;5.90;99.90
18805;DHT22;9530;48.930;9.526;2022-09-21T00:28:51;5.90;99.90
18805;DHT22;9530;48.930;9.526;2022-09-21T00:31:19;5.80;99.90
18805;DHT22;9530;48.930;9.526;2022-09-21T00:33:45;5.70;99.90
18805;DHT22;9530;48.930;9.526;2022-09-21T00:36:14;5.70;99.90
18805;DHT22;9530;48.930;9.526;2022-09-21T00:38:41;5.70;99.90
18805;DHT22;9530;48.930;9.526;2022-09-21T00:41:10;5.70;99.90
18805;DHT22;9530;48.930;9.526;2022-09-21T00:43:43;5.80;99.90
18805;DHT22;9530;48.930;9.526;2022-09-21T00:46:14;5.70;99.90
18805;DHT22;9530;48.930;9.526;2022-09-21T00:48:41;5.70;99.90
18805;DHT22;9530;48.930;9.526;2022-09-21T00:51:10;5.80;99.90
18805;DHT22;9530;48.930;9.526;2022-09-21T00:53:37;5.90;99.90
18805;DHT22;9530;48.930;9.526;2022-09-21T00:56:05;5.80;99.90
18805;DHT22;9530;48.930;9.526;2022-09-21T00:58:39;5.80;99.90
18805;DHT22;9530;48.930;9.526;2022-09-21T01:01:06;5.80;99.90
18805;DHT22;9530;48.930;9.526;2022-09-21T01:03:33;5.80;99.90
18805;DHT22;9530;48.930;9.526;2022-09-21T01:05:59;5.70;99.90
18805;DHT22;9530;48.930;9.526;2022-09-21T01:08:27;5.80;99.90
18805;DHT22;9530;48.930;9.526;2022-09-21T01:14:09;5.70;99.90
18805;DHT22;9530;48.930;9.526;2022-09-21T01:16:44;5.60;99.90
18805;DHT22;9530;48.930;9.526;2022-09-21T01:19:24;5.70;99.90
18805;DHT22;9530;48.930;9.526;2022-09-21T01:22:01;5.70;99.90
18805;DHT22;9530;48.930;9.526;2022-09-21T01:24:51;5.70;99.90
18805;DHT22;9530;48.930;9.526;2022-09-21T01:27:34;5.70;99.90
18805;DHT22;9530;48.930;9.526;2022-09-21T01:30:06;5.60;99.90
18805;DHT22;9530;48.930;9.526;2022-09-21T01:32:37;5.50;99.90
18805;DHT22;9530;48.930;9.526;2022-09-21T01:35:09;5.50;99.90
18805;DHT22;9530;48.930;9.526;2022-09-21T01:37:41;5.50;99.90
18805;DHT22;9530;48.930;9.526;2022-09-21T01:40:12;5.60;99.90
18805;DHT22;9530;48.930;9.526;2022-09-21T01:42:40;5.60;99.90
18805;DHT22;9530;48.930;9.526;2022-09-21T01:45:11;5.60;99.90
18805;DHT22;9530;48.930;9.526;2022-09-21T01:47:41;5.60;99.90
18805;DHT22;9530;48.930;9.526;2022-09-21T01:50:13;5.60;99.90
18805;DHT22;9530;48.930;9.526;2022-09-21T01:52:44;5.60;99.90
18805;DHT22;9530;48.930;9.526;2022-09-21T01:55:15;5.50;99.90
18805;DHT22;9530;48.930;9.526;2022-09-21T01:57:48;5.50;99.90
18805;DHT22;9530;48.930;9.526;2022-09-21T02:00:19;5.50;99.90
18805;DHT22;9530;48.930;9.526;2022-09-21T02:02:49;5.50;99.90
18805;DHT22;9530;48.930;9.526;2022-09-21T02:05:19;5.50;99.90
18805;DHT22;9530;48.930;9.526;2022-09-21T02:07:47;5.50;99.90
18805;DHT22;9530;48.930;9.526;2022-09-21T02:10:18;5.40;99.90
18805;DHT22;9530;48.930;9.526;2022-09-21T02:12:47;5.30;99.90
18805;DHT22;9530;48.930;9.526;2022-09-21T02:15:19;5.30;99.90
18805;DHT22;9530;48.930;9.526;2022-09-21T02:18:03;5.30;99.90
18805;DHT22;9530;48.930;9.526;2022-09-21T02:20:37;5.30;99.90
18805;DHT22;9530;48.930;9.526;2022-09-21T02:23:10;5.30;99.90
18805;DHT22;9530;48.930;9.526;2022-09-21T02:25:45;5.40;99.90
18805;DHT22;9530;48.930;9.526;2022-09-21T02:28:22;5.40;99.90
18805;DHT22;9530;48.930;9.526;2022-09-21T02:30:56;5.40;99.90
18805;DHT22;9530;48.930;9.526;2022-09-21T02:33:29;5.30;99.90
18805;DHT22;9530;48.930;9.526;2022-09-21T02:36:03;5.20;99.90
18805;DHT22;9530;48.930;9.526;2022-09-21T02:38:35;5.10;99.90
18805;DHT22;9530;48.930;9.526;2022-09-21T02:41:08;5.20;99.90
18805;DHT22;9530;48.930;9.526;2022-09-21T02:43:41;5.30;99.90
18805;DHT22;9530;48.930;9.526;2022-09-21T02:46:15;5.30;99.90
18805;DHT22;9530;48.930;9.526;2022-09-21T02:48:47;5.30;99.90
18805;DHT22;9530;48.930;9.526;2022-09-21T02:51:18;5.10;99.90
18805;DHT22;9530;48.930;9.526;2022-09-21T02:53:45;5.20;99.90
18805;DHT22;9530;48.930;9.526;2022-09-21T02:56:15;5.30;99.90
18805;DHT22;9530;48.930;9.526;2022-09-21T02:58:46;5.40;99.90
18805;DHT22;9530;48.930;9.526;2022-09-21T03:01:16;5.40;99.90
18805;DHT22;9530;48.930;9.526;2022-09-21T03:03:44;5.40;99.90
18805;DHT22;9530;48.930;9.526;2022-09-21T03:06:11;5.40;99.90
18805;DHT22;9530;48.930;9.526;2022-09-21T03:08:37;5.30;99.90
18805;DHT22;9530;48.930;9.526;2022-09-21T03:11:04;5.30;99.90
18805;DHT22;9530;48.930;9.526;2022-09-21T03:13:31;5.30;99.90
18805;DHT22;9530;48.930;9.526;2022-09-21T03:15:59;5.30;99.90
18805;DHT22;9530;48.930;9.526;2022-09-21T03:18:28;5.30;99.90
18805;DHT22;9530;48.930;9.526;2022-09-21T03:20:55;5.30;99.90
18805;DHT22;9530;48.930;9.526;2022-09-21T03:23:21;5.30;99.90
18805;DHT22;9530;48.930;9.526;2022-09-21T03:25:49;5.30;99.90
18805;DHT22;9530;48.930;9.526;2022-09-21T03:28:17;5.20;99.90
18805;DHT22;9530;48.930;9.526;2022-09-21T03:30:44;5.10;99.90
18805;DHT22;9530;48.930;9.526;2022-09-21T03:33:11;5.00;99.90
18805;DHT22;9530;48.930;9.526;2022-09-21T03:35:39;5.00;99.90
18805;DHT22;9530;48.930;9.526;2022-09-21T03:38:06;4.90;99.90
18805;DHT22;9530;48.930;9.526;2022-09-21T03:40:33;4.90;99.90
18805;DHT22;9530;48.930;9.526;2022-09-21T03:43:00;4.80;99.90
18805;DHT22;9530;48.930;9.526;2022-09-21T03:45:27;4.80;99.90
18805;DHT22;9530;48.930;9.526;2022-09-21T03:47:54;4.80;99.90
18805;DHT22;9530;48.930;9.526;2022-09-21T03:50:22;4.80;99.90
18805;DHT22;9530;48.930;9.526;2022-09-21T03:52:50;4.70;99.90
18805;DHT22;9530;48.930;9.526;2022-09-21T03:55:17;4.70;99.90
18805;DHT22;9530;48.930;9.526;2022-09-21T03:57:44;4.70;99.90
18805;DHT22;9530;48.930;9.526;2022-09-21T04:00:11;4.80;99.90
18805;DHT22;9530;48.930;9.526;2022-09-21T04:02:38;4.80;99.90
18805;DHT22;9530;48.930;9.526;2022-09-21T04:05:06;4.80;99.90
18805;DHT22;9530;48.930;9.526;2022-09-21T04:07:36;4.80;99.90
18805;DHT22;9530;48.930;9.526;2022-09-21T04:10:06;4.70;99.90
18805;DHT22;9530;48.930;9.526;2022-09-21T04:12:33;4.60;99.90
18805;DHT22;9530;48.930;9.526;2022-09-21T04:15:01;4.60;99.90
18805;DHT22;9530;48.930;9.526;2022-09-21T04:17:28;4.60;99.90
18805;DHT22;9530;48.930;9.526;2022-09-21T04:19:55;4.60;99.90
18805;DHT22;9530;48.930;9.526;2022-09-21T04:22:22;4.50;99.90
18805;DHT22;9530;48.930;9.526;2022-09-21T04:24:50;4.60;99.90
18805;DHT22;9530;48.930;9.526;2022-09-21T04:27:18;4.60;99.90
18805;DHT22;9530;48.930;9.526;2022-09-21T04:29:44;4.60;99.90
18805;DHT22;9530;48.930;9.526;2022-09-21T04:32:11;4.60;99.90
18805;DHT22;9530;48.930;9.526;2022-09-21T04:34:38;4.60;99.90
18805;DHT22;9530;48.930;9.526;2022-09-21T04:37:05;4.60;99.90
18805;DHT22;9530;48.930;9.526;2022-09-21T04:39:32;4.60;99.90
18805;DHT22;9530;48.930;9.526;2022-09-21T04:41:59;4.50;99.90
18805;DHT22;9530;48.930;9.526;2022-09-21T04:44:27;4.50;99.90
18805;DHT22;9530;48.930;9.526;2022-09-21T04:46:54;4.60;99.90
18805;DHT22;9530;48.930;9.526;2022-09-21T04:49:21;4.60;99.90
18805;DHT22;9530;48.930;9.526;2022-09-21T04:51:48;4.50;99.90
18805;DHT22;9530;48.930;9.526;2022-09-21T04:54:14;4.50;99.90
18805;DHT22;9530;48.930;9.526;2022-09-21T04:56:41;4.40;99.90
18805;DHT22;9530;48.930;9.526;2022-09-21T04:59:08;4.50;99.90
18805;DHT22;9530;48.930;9.526;2022-09-21T05:01:36;4.50;99.90
18805;DHT22;9530;48.930;9.526;2022-09-21T05:04:03;4.50;99.90
18805;DHT22;9530;48.930;9.526;2022-09-21T05:06:30;4.40;99.90
18805;DHT22;9530;48.930;9.526;2022-09-21T05:08:58;4.40;99.90
18805;DHT22;9530;48.930;9.526;2022-09-21T05:11:43;4.40;99.90
18805;DHT22;9530;48.930;9.526;2022-09-21T05:14:10;4.30;99.90
18805;DHT22;9530;48.930;9.526;2022-09-21T05:16:38;4.40;99.90
18805;DHT22;9530;48.930;9.526;2022-09-21T05:19:05;4.40;99.90
18805;DHT22;9530;48.930;9.526;2022-09-21T05:21:32;4.40;99.90
18805;DHT22;9530;48.930;9.526;2022-09-21T05:23:58;4.40;99.90
18805;DHT22;9530;48.930;9.526;2022-09-21T05:26:25;4.30;99.90
18805;DHT22;9530;48.930;9.526;2022-09-21T05:28:52;4.40;99.90
18805;DHT22;9530;48.930;9.526;2022-09-21T05:31:30;4.40;99.90
18805;DHT22;9530;48.930;9.526;2022-09-21T05:34:04;4.40;99.90
18805;DHT22;9530;48.930;9.526;2022-09-21T05:36:40;4.50;99.90
18805;DHT22;9530;48.930;9.526;2022-09-21T05:39:11;4.60;99.90
18805;DHT22;9530;48.930;9.526;2022-09-21T05:41:38;4.60;99.90
18805;DHT22;9530;48.930;9.526;2022-09-21T05:44:06;4.60;99.90
18805;DHT22;9530;48.930;9.526;2022-09-21T05:46:37;4.60;99.90
18805;DHT22;9530;48.930;9.526;2022-09-21T05:49:13;4.70;99.90
18805;DHT22;9530;48.930;9.526;2022-09-21T05:51:50;4.60;99.90
18805;DHT22;9530;48.930;9.526;2022-09-21T05:54:26;4.70;99.90
18805;DHT22;9530;48.930;9.526;2022-09-21T05:57:02;4.70;99.90
18805;DHT22;9530;48.930;9.526;2022-09-21T05:59:38;4.70;99.90
18805;DHT22;9530;48.930;9.526;2022-09-21T06:02:17;4.80;99.90
18805;DHT22;9530;48.930;9.526;2022-09-21T06:04:50;4.90;99.90
18805;DHT22;9530;48.930;9.526;2022-09-21T06:07:18;5.00;99.90
18805;DHT22;9530;48.930;9.526;2022-09-21T06:09:45;5.00;99.90
18805;DHT22;9530;48.930;9.526;2022-09-21T06:12:11;5.00;99.90
18805;DHT22;9530;48.930;9.526;2022-09-21T06:14:38;5.10;99.90
18805;DHT22;9530;48.930;9.526;2022-09-21T06:17:05;5.10;99.90
18805;DHT22;9530;48.930;9.526;2022-09-21T06:19:32;5.20;99.90
18805;DHT22;9530;48.930;9.526;2022-09-21T06:22:00;5.30;99.90
18805;DHT22;9530;48.930;9.526;2022-09-21T06:24:26;5.40;99.90
18805;DHT22;9530;48.930;9.526;2022-09-21T06:26:53;5.50;99.90
18805;DHT22;9530;48.930;9.526;2022-09-21T06:29:19;5.50;99.90
18805;DHT22;9530;48.930;9.526;2022-09-21T06:31:48;5.60;99.90
18805;DHT22;9530;48.930;9.526;2022-09-21T06:34:15;5.70;99.90
18805;DHT22;9530;48.930;9.526;2022-09-21T06:36:42;5.80;99.90
18805;DHT22;9530;48.930;9.526;2022-09-21T06:39:11;5.90;99.90
18805;DHT22;9530;48.930;9.526;2022-09-21T06:41:38;5.90;99.90
18805;DHT22;9530;48.930;9.526;2022-09-21T06:44:05;6.00;99.90
18805;DHT22;9530;48.930;9.526;2022-09-21T06:46:32;6.20;99.90
18805;DHT22;9530;48.930;9.526;2022-09-21T06:48:58;6.30;99.90
18805;DHT22;9530;48.930;9.526;2022-09-21T06:51:25;6.30;99.90
18805;DHT22;9530;48.930;9.526;2022-09-21T06:53:53;6.40;99.90
18805;DHT22;9530;48.930;9.526;2022-09-21T06:56:22;6.50;99.90
18805;DHT22;9530;48.930;9.526;2022-09-21T06:58:49;6.50;99.90
18805;DHT22;9530;48.930;9.526;2022-09-21T07:01:17;6.70;99.90
18805;DHT22;9530;48.930;9.526;2022-09-21T07:03:43;6.70;99.90
18805;DHT22;9530;48.930;9.526;2022-09-21T07:06:14;6.90;99.90
18805;DHT22;9530;48.930;9.526;2022-09-21T07:08:42;7.00;99.90
18805;DHT22;9530;48.930;9.526;2022-09-21T07:11:09;7.10;99.90
18805;DHT22;9530;48.930;9.526;2022-09-21T07:13:37;7.20;99.90
18805;DHT22;9530;48.930;9.526;2022-09-21T07:16:05;7.30;99.90
18805;DHT22;9530;48.930;9.526;2022-09-21T07:18:33;7.50;99.90
18805;DHT22;9530;48.930;9.526;2022-09-21T07:21:01;7.60;99.90
18805;DHT22;9530;48.930;9.526;2022-09-21T07:23:29;7.70;99.90
18805;DHT22;9530;48.930;9.526;2022-09-21T07:26:00;7.90;99.90
18805;DHT22;9530;48.930;9.526;2022-09-21T07:28:27;7.90;99.90
18805;DHT22;9530;48.930;9.526;2022-09-21T07:30:55;8.00;99.90
18805;DHT22;9530;48.930;9.526;2022-09-21T07:33:22;8.10;99.90
18805;DHT22;9530;48.930;9.526;2022-09-21T07:35:52;8.20;99.90
18805;DHT22;9530;48.930;9.526;2022-09-21T07:38:21;8.50;99.90
18805;DHT22;9530;48.930;9.526;2022-09-21T07:40:47;8.60;99.90
18805;DHT22;9530;48.930;9.526;2022-09-21T07:43:14;8.60;99.90
18805;DHT22;9530;48.930;9.526;2022-09-21T07:45:42;8.70;99.90
18805;DHT22;9530;48.930;9.526;2022-09-21T07:48:10;8.80;99.90
18805;DHT22;9530;48.930;9.526;2022-09-21T07:50:37;8.80;99.90
18805;DHT22;9530;48.930;9.526;2022-09-21T07:53:03;8.90;99.90
18805;DHT22;9530;48.930;9.526;2022-09-21T07:55:30;9.00;99.90
18805;DHT22;9530;48.930;9.526;2022-09-21T07:57:57;9.10;99.90
18805;DHT22;9530;48.930;9.526;2022-09-21T08:00:41;9.30;99.90
18805;DHT22;9530;48.930;9.526;2022-09-21T08:03:09;9.50;99.90
18805;DHT22;9530;48.930;9.526;2022-09-21T08:05:36;9.60;99.90
18805;DHT22;9530;48.930;9.526;2022-09-21T08:08:03;9.80;99.90
18805;DHT22;9530;48.930;9.526;2022-09-21T08:10:30;9.90;99.90
18805;DHT22;9530;48.930;9.526;2022-09-21T08:12:57;10.10;99.90
18805;DHT22;9530;48.930;9.526;2022-09-21T08:15:23;10.30;99.90
18805;DHT22;9530;48.930;9.526;2022-09-21T08:17:51;10.50;99.90
18805;DHT22;9530;48.930;9.526;2022-09-21T08:20:19;10.50;99.90
18805;DHT22;9530;48.930;9.526;2022-09-21T08:22:46;10.70;99.90
18805;DHT22;9530;48.930;9.526;2022-09-21T08:25:13;10.80;99.90
18805;DHT22;9530;48.930;9.526;2022-09-21T08:27:39;11.00;99.90
18805;DHT22;9530;48.930;9.526;2022-09-21T08:30:08;11.20;99.90
18805;DHT22;9530;48.930;9.526;2022-09-21T08:32:36;11.40;99.90
18805;DHT22;9530;48.930;9.526;2022-09-21T08:35:03;11.60;99.90
18805;DHT22;9530;48.930;9.526;2022-09-21T08:37:31;11.70;99.90
18805;DHT22;9530;48.930;9.526;2022-09-21T08:40:00;11.90;99.90
18805;DHT22;9530;48.930;9.526;2022-09-21T08:42:40;12.10;99.90
18805;DHT22;9530;48.930;9.526;2022-09-21T08:45:14;12.30;99.90
18805;DHT22;9530;48.930;9.526;2022-09-21T08:47:44;12.50;99.90
18805;DHT22;9530;48.930;9.526;2022-09-21T08:50:30;12.70;99.90
18805;DHT22;9530;48.930;9.526;2022-09-21T08:53:04;12.80;99.90
18805;DHT22;9530;48.930;9.526;2022-09-21T08:55:32;13.00;99.90
18805;DHT22;9530;48.930;9.526;2022-09-21T08:57:59;13.10;99.90
18805;DHT22;9530;48.930;9.526;2022-09-21T09:00:26;13.20;99.90
18805;DHT22;9530;48.930;9.526;2022-09-21T09:05:59;13.60;99.90
18805;DHT22;9530;48.930;9.526;2022-09-21T09:11:45;13.80;99.90
18805;DHT22;9530;48.930;9.526;2022-09-21T09:14:32;14.10;99.90
18805;DHT22;9530;48.930;9.526;2022-09-21T09:17:16;14.20;99.90
18805;DHT22;9530;48.930;9.526;2022-09-21T09:19:47;14.70;99.90
18805;DHT22;9530;48.930;9.526;2022-09-21T09:22:20;14.80;99.90
18805;DHT22;9530;48.930;9.526;2022-09-21T09:24:51;15.00;99.90
18805;DHT22;9530;48.930;9.526;2022-09-21T09:27:22;14.90;99.90
18805;DHT22;9530;48.930;9.526;2022-09-21T09:29:55;15.20;99.90
18805;DHT22;9530;48.930;9.526;2022-09-21T09:32:32;15.50;99.90
18805;DHT22;9530;48.930;9.526;2022-09-21T09:35:04;15.70;99.90
18805;DHT22;9530;48.930;9.526;2022-09-21T09:37:35;15.90;99.90
18805;DHT22;9530;48.930;9.526;2022-09-21T09:40:05;16.00;99.90
18805;DHT22;9530;48.930;9.526;2022-09-21T09:42:45;16.20;99.90
18805;DHT22;9530;48.930;9.526;2022-09-21T09:45:30;16.30;99.90
18805;DHT22;9530;48.930;9.526;2022-09-21T09:48:10;16.50;99.90
18805;DHT22;9530;48.930;9.526;2022-09-21T09:50:41;16.70;99.90
18805;DHT22;9530;48.930;9.526;2022-09-21T09:53:10;16.70;99.90
18805;DHT22;9530;48.930;9.526;2022-09-21T09:55:40;16.80;99.90
18805;DHT22;9530;48.930;9.526;2022-09-21T09:58:16;16.80;99.90
18805;DHT22;9530;48.930;9.526;2022-09-21T10:00:43;16.90;99.90
18805;DHT22;9530;48.930;9.526;2022-09-21T10:03:15;17.00;99.90
18805;DHT22;9530;48.930;9.526;2022-09-21T10:05:42;17.20;99.90
18805;DHT22;9530;48.930;9.526;2022-09-21T10:11:10;17.20;99.90
18805;DHT22;9530;48.930;9.526;2022-09-21T10:13:38;16.90;99.90
18805;DHT22;9530;48.930;9.526;2022-09-21T10:16:11;16.70;99.90
18805;DHT22;9530;48.930;9.526;2022-09-21T10:18:42;16.30;99.90
18805;DHT22;9530;48.930;9.526;2022-09-21T10:21:16;16.10;99.90
18805;DHT22;9530;48.930;9.526;2022-09-21T10:23:46;16.00;99.90
18805;DHT22;9530;48.930;9.526;2022-09-21T10:26:15;16.10;99.90
18805;DHT22;9530;48.930;9.526;2022-09-21T10:28:54;16.00;99.90
18805;DHT22;9530;48.930;9.526;2022-09-21T10:31:22;15.80;99.90
18805;DHT22;9530;48.930;9.526;2022-09-21T10:33:53;15.80;99.90
18805;DHT22;9530;48.930;9.526;2022-09-21T10:36:32;15.90;99.90
18805;DHT22;9530;48.930;9.526;2022-09-21T10:39:17;15.70;99.90
18805;DHT22;9530;48.930;9.526;2022-09-21T10:41:49;15.80;99.90
18805;DHT22;9530;48.930;9.526;2022-09-21T10:44:18;16.00;99.90
18805;DHT22;9530;48.930;9.526;2022-09-21T10:46:46;16.10;99.90
18805;DHT22;9530;48.930;9.526;2022-09-21T10:49:18;16.20;99.90
18805;DHT22;9530;48.930;9.526;2022-09-21T10:51:47;16.30;99.90
18805;DHT22;9530;48.930;9.526;2022-09-21T10:54:19;16.50;99.90
18805;DHT22;9530;48.930;9.526;2022-09-21T10:56:58;16.40;99.90
18805;DHT22;9530;48.930;9.526;2022-09-21T10:59:27;16.20;99.90
18805;DHT22;9530;48.930;9.526;2022-09-21T11:01:56;16.00;99.90
18805;DHT22;9530;48.930;9.526;2022-09-21T11:04:35;16.00;99.90
18805;DHT22;9530;48.930;9.526;2022-09-21T11:07:15;15.80;99.90
18805;DHT22;9530;48.930;9.526;2022-09-21T11:09:49;15.80;99.90
18805;DHT22;9530;48.930;9.526;2022-09-21T11:12:32;15.80;99.90
18805;DHT22;9530;48.930;9.526;2022-09-21T11:15:14;15.80;99.90
18805;DHT22;9530;48.930;9.526;2022-09-21T11:17:46;15.90;99.90
18805;DHT22;9530;48.930;9.526;2022-09-21T11:20:21;16.10;99.90
18805;DHT22;9530;48.930;9.526;2022-09-21T11:22:59;16.30;99.90
18805;DHT22;9530;48.930;9.526;2022-09-21T11:25:34;16.30;99.90
18805;DHT22;9530;48.930;9.526;2022-09-21T11:28:10;16.40;99.90
18805;DHT22;9530;48.930;9.526;2022-09-21T11:30:49;16.40;99.90
18805;DHT22;9530;48.930;9.526;2022-09-21T11:33:30;16.20;99.90
18805;DHT22;9530;48.930;9.526;2022-09-21T11:36:02;16.10;99.90
18805;DHT22;9530;48.930;9.526;2022-09-21T11:38:40;15.90;99.90
18805;DHT22;9530;48.930;9.526;2022-09-21T11:41:23;15.70;99.90
18805;DHT22;9530;48.930;9.526;2022-09-21T11:44:11;15.60;99.90
18805;DHT22;9530;48.930;9.526;2022-09-21T11:46:44;15.60;99.90
18805;DHT22;9530;48.930;9.526;2022-09-21T11:49:29;15.70;99.90
18805;DHT22;9530;48.930;9.526;2022-09-21T11:52:12;16.20;99.90
18805;DHT22;9530;48.930;9.526;2022-09-21T11:54:58;16.30;99.90
18805;DHT22;9530;48.930;9.526;2022-09-21T11:57:32;16.50;99.90
18805;DHT22;9530;48.930;9.526;2022-09-21T12:00:09;16.80;99.90
18805;DHT22;9530;48.930;9.526;2022-09-21T12:03:06;17.10;99.90
18805;DHT22;9530;48.930;9.526;2022-09-21T12:05:39;17.40;99.90
18805;DHT22;9530;48.930;9.526;2022-09-21T12:08:37;17.50;99.90
18805;DHT22;9530;48.930;9.526;2022-09-21T12:11:11;17.60;99.90
18805;DHT22;9530;48.930;9.526;2022-09-21T12:13:46;17.60;99.90
18805;DHT22;9530;48.930;9.526;2022-09-21T12:16:22;17.60;99.90
18805;DHT22;9530;48.930;9.526;2022-09-21T12:18:55;17.90;99.90
18805;DHT22;9530;48.930;9.526;2022-09-21T12:21:27;17.90;99.90
18805;DHT22;9530;48.930;9.526;2022-09-21T12:23:56;18.00;99.90
18805;DHT22;9530;48.930;9.526;2022-09-21T12:26:26;17.70;99.90
18805;DHT22;9530;48.930;9.526;2022-09-21T12:28:59;17.70;99.90
18805;DHT22;9530;48.930;9.526;2022-09-21T12:31:30;17.90;99.90
18805;DHT22;9530;48.930;9.526;2022-09-21T12:34:03;17.80;99.90
18805;DHT22;9530;48.930;9.526;2022-09-21T12:36:36;17.50;99.90
18805;DHT22;9530;48.930;9.526;2022-09-21T12:39:06;17.40;99.90
18805;DHT22;9530;48.930;9.526;2022-09-21T12:41:41;17.20;99.90
18805;DHT22;9530;48.930;9.526;2022-09-21T12:44:16;17.10;99.90
18805;DHT22;9530;48.930;9.526;2022-09-21T12:46:47;16.90;99.90
18805;DHT22;9530;48.930;9.526;2022-09-21T12:49:20;17.20;99.90
18805;DHT22;9530;48.930;9.526;2022-09-21T12:51:53;17.40;99.90
18805;DHT22;9530;48.930;9.526;2022-09-21T12:54:27;17.50;99.90
18805;DHT22;9530;48.930;9.526;2022-09-21T12:57:01;17.70;99.90
18805;DHT22;9530;48.930;9.526;2022-09-21T12:59:35;17.80;99.90
18805;DHT22;9530;48.930;9.526;2022-09-21T13:02:16;17.90;99.90
18805;DHT22;9530;48.930;9.526;2022-09-21T13:04:52;18.00;99.90
18805;DHT22;9530;48.930;9.526;2022-09-21T13:10:16;18.00;99.90
18805;DHT22;9530;48.930;9.526;2022-09-21T13:12:46;18.30;99.90
18805;DHT22;9530;48.930;9.526;2022-09-21T13:15:23;18.50;99.90
18805;DHT22;9530;48.930;9.526;2022-09-21T13:17:59;18.40;99.90
18805;DHT22;9530;48.930;9.526;2022-09-21T13:20:26;18.40;99.90
18805;DHT22;9530;48.930;9.526;2022-09-21T13:22:59;18.40;99.90
18805;DHT22;9530;48.930;9.526;2022-09-21T13:25:28;18.30;99.90
18805;DHT22;9530;48.930;9.526;2022-09-21T13:27:58;18.20;99.90
18805;DHT22;9530;48.930;9.526;2022-09-21T13:30:31;18.10;99.90
18805;DHT22;9530;48.930;9.526;2022-09-21T13:33:00;17.80;99.90
18805;DHT22;9530;48.930;9.526;2022-09-21T13:36:07;17.60;99.90
18805;DHT22;9530;48.930;9.526;2022-09-21T13:41:35;17.10;99.90
18805;DHT22;9530;48.930;9.526;2022-09-21T13:44:03;17.20;99.90
18805;DHT22;9530;48.930;9.526;2022-09-21T13:46:51;17.30;99.90
18805;DHT22;9530;48.930;9.526;2022-09-21T13:49:24;17.20;99.90
18805;DHT22;9530;48.930;9.526;2022-09-21T13:51:57;17.00;99.90
18805;DHT22;9530;48.930;9.526;2022-09-21T13:54:27;16.90;99.90
18805;DHT22;9530;48.930;9.526;2022-09-21T13:56:58;16.70;99.90
18805;DHT22;9530;48.930;9.526;2022-09-21T13:59:30;16.70;99.90
18805;DHT22;9530;48.930;9.526;2022-09-21T14:01:58;16.60;99.90
18805;DHT22;9530;48.930;9.526;2022-09-21T14:04:29;16.80;99.90
18805;DHT22;9530;48.930;9.526;2022-09-21T14:06:57;17.10;99.90
18805;DHT22;9530;48.930;9.526;2022-09-21T14:09:37;17.20;99.90
18805;DHT22;9530;48.930;9.526;2022-09-21T14:12:11;17.10;99.90
18805;DHT22;9530;48.930;9.526;2022-09-21T14:15:29;17.20;99.90
18805;DHT22;9530;48.930;9.526;2022-09-21T14:21:14;17.20;99.90
18805;DHT22;9530;48.930;9.526;2022-09-21T14:26:51;16.90;99.90
18805;DHT22;9530;48.930;9.526;2022-09-21T14:29:23;16.80;99.90
18805;DHT22;9530;48.930;9.526;2022-09-21T14:31:53;16.70;99.90
18805;DHT22;9530;48.930;9.526;2022-09-21T14:34:23;16.70;99.90
18805;DHT22;9530;48.930;9.526;2022-09-21T14:36:55;16.90;99.90
18805;DHT22;9530;48.930;9.526;2022-09-21T14:39:27;17.10;99.90
18805;DHT22;9530;48.930;9.526;2022-09-21T14:41:59;17.20;99.90
18805;DHT22;9530;48.930;9.526;2022-09-21T14:44:28;17.30;99.90
18805;DHT22;9530;48.930;9.526;2022-09-21T14:47:25;17.30;99.90
18805;DHT22;9530;48.930;9.526;2022-09-21T14:50:10;17.30;99.90
18805;DHT22;9530;48.930;9.526;2022-09-21T14:52:59;17.40;99.90
18805;DHT22;9530;48.930;9.526;2022-09-21T14:55:44;17.30;99.90
18805;DHT22;9530;48.930;9.526;2022-09-21T14:58:29;17.30;99.90
18805;DHT22;9530;48.930;9.526;2022-09-21T15:01:18;17.30;99.90
18805;DHT22;9530;48.930;9.526;2022-09-21T15:04:00;17.20;99.90
18805;DHT22;9530;48.930;9.526;2022-09-21T15:06:33;17.20;99.90
18805;DHT22;9530;48.930;9.526;2022-09-21T15:09:31;17.40;99.90
18805;DHT22;9530;48.930;9.526;2022-09-21T15:12:22;17.40;99.90
18805;DHT22;9530;48.930;9.526;2022-09-21T15:14:58;17.60;99.90
18805;DHT22;9530;48.930;9.526;2022-09-21T15:17:28;17.50;99.90
18805;DHT22;9530;48.930;9.526;2022-09-21T15:19:59;17.60;99.90
18805;DHT22;9530;48.930;9.526;2022-09-21T15:22:26;17.70;99.90
18805;DHT22;9530;48.930;9.526;2022-09-21T15:24:56;17.70;99.90
18805;DHT22;9530;48.930;9.526;2022-09-21T15:27:25;17.70;99.90
18805;DHT22;9530;48.930;9.526;2022-09-21T15:29:58;17.80;99.90
18805;DHT22;9530;48.930;9.526;2022-09-21T15:32:33;17.80;99.90
18805;DHT22;9530;48.930;9.526;2022-09-21T15:35:02;17.90;99.90
18805;DHT22;9530;48.930;9.526;2022-09-21T15:37:34;18.10;99.90
18805;DHT22;9530;48.930;9.526;2022-09-21T15:40:05;18.10;99.90
18805;DHT22;9530;48.930;9.526;2022-09-21T15:42:35;18.00;99.90
18805;DHT22;9530;48.930;9.526;2022-09-21T15:45:14;17.60;99.90
18805;DHT22;9530;48.930;9.526;2022-09-21T15:47:41;17.60;99.90
18805;DHT22;9530;48.930;9.526;2022-09-21T15:50:11;17.50;99.90
18805;DHT22;9530;48.930;9.526;2022-09-21T15:52:43;17.40;99.90
18805;DHT22;9530;48.930;9.526;2022-09-21T15:55:16;17.40;99.90
18805;DHT22;9530;48.930;9.526;2022-09-21T15:57:46;17.30;99.90
18805;DHT22;9530;48.930;9.526;2022-09-21T16:00:22;17.20;99.90
18805;DHT22;9530;48.930;9.526;2022-09-21T16:02:55;17.30;99.90
18805;DHT22;9530;48.930;9.526;2022-09-21T16:05:26;17.40;99.90
18805;DHT22;9530;48.930;9.526;2022-09-21T16:08:04;17.30;99.90
18805;DHT22;9530;48.930;9.526;2022-09-21T16:10:37;17.20;99.90
18805;DHT22;9530;48.930;9.526;2022-09-21T16:13:11;17.60;99.90
18805;DHT22;9530;48.930;9.526;2022-09-21T16:16:03;18.80;99.90
18805;DHT22;9530;48.930;9.526;2022-09-21T16:18:32;19.20;99.90
18805;DHT22;9530;48.930;9.526;2022-09-21T16:21:19;18.50;99.90
18805;DHT22;9530;48.930;9.526;2022-09-21T16:23:47;18.70;99.90
18805;DHT22;9530;48.930;9.526;2022-09-21T16:26:21;20.10;99.90
18805;DHT22;9530;48.930;9.526;2022-09-21T16:28:56;21.30;99.90
18805;DHT22;9530;48.930;9.526;2022-09-21T16:31:29;22.70;99.30
18805;DHT22;9530;48.930;9.526;2022-09-21T16:36:47;23.90;95.20
18805;DHT22;9530;48.930;9.526;2022-09-21T16:39:15;24.40;93.50
18805;DHT22;9530;48.930;9.526;2022-09-21T16:41:47;24.20;93.10
18805;DHT22;9530;48.930;9.526;2022-09-21T16:44:16;23.90;93.80
18805;DHT22;9530;48.930;9.526;2022-09-21T16:46:58;22.70;92.50
18805;DHT22;9530;48.930;9.526;2022-09-21T16:49:27;22.80;99.90
18805;DHT22;9530;48.930;9.526;2022-09-21T16:51:55;21.70;93.40